createdAt,value
2022-10-18T00:02:20.405Z,14.77
2022-10-18T00:04:47.051Z,14.74
2022-10-18T00:07:13.494Z,14.73
2022-10-18T00:09:39.834Z,14.72
2022-10-18T00:12:06.187Z,14.70
2022-10-18T00:14:32.670Z,14.68
2022-10-18T00:16:59.057Z,14.65
2022-10-18T00:19:28.524Z,14.62
2022-10-18T00:21:55.941Z,14.60
2022-10-18T00:24:22.314Z,14.61
2022-10-18T00:26:48.672Z,14.60
2022-10-18T00:29:16.029Z,14.56
2022-10-18T00:31:43.698Z,14.55
2022-10-18T00:34:13.377Z,14.53
2022-10-18T00:36:40.446Z,14.49
2022-10-18T00:39:09.303Z,14.49
2022-10-18T00:41:37.863Z,14.47
2022-10-18T00:44:27.266Z,14.44
2022-10-18T00:47:04.826Z,14.42
2022-10-18T00:49:34.682Z,14.41
2022-10-18T00:52:05.322Z,14.40
2022-10-18T00:54:34.541Z,14.38
2022-10-18T00:57:01.521Z,14.37
2022-10-18T00:59:29.133Z,14.35
2022-10-18T01:01:55.559Z,14.37
2022-10-18T01:04:22.541Z,14.34
2022-10-18T01:07:07.421Z,14.32
2022-10-18T01:09:44.989Z,14.28
2022-10-18T01:12:33.075Z,14.25
2022-10-18T01:15:23.885Z,14.21
2022-10-18T01:18:32.826Z,14.16
2022-10-18T01:21:07.900Z,14.12
2022-10-18T01:24:09.333Z,14.07
2022-10-18T01:27:18.952Z,14.03
2022-10-18T01:30:03.025Z,14.03
2022-10-18T01:32:47.285Z,14.02
2022-10-18T01:35:21.227Z,14.03
2022-10-18T01:37:50.652Z,14.02
2022-10-18T01:40:21.677Z,14.02
2022-10-18T01:42:49.876Z,14.03
2022-10-18T01:45:17.086Z,14.02
2022-10-18T01:47:46.052Z,14.01
2022-10-18T01:50:12.807Z,14.00
2022-10-18T01:52:49.926Z,13.97
2022-10-18T01:55:17.300Z,13.93
2022-10-18T01:58:03.681Z,13.90
2022-10-18T02:00:42.388Z,13.88
2022-10-18T02:03:20.948Z,13.88
2022-10-18T02:06:01.826Z,13.88
2022-10-18T02:08:34.674Z,13.86
2022-10-18T02:11:05.336Z,13.84
2022-10-18T02:13:38.441Z,13.80
2022-10-18T02:16:10.351Z,13.79
2022-10-18T02:18:45.585Z,13.75
2022-10-18T02:21:17.377Z,13.72
2022-10-18T02:23:46.033Z,13.70
2022-10-18T02:26:14.476Z,13.68
2022-10-18T02:28:42.742Z,13.68
2022-10-18T02:31:19.393Z,13.67
2022-10-18T02:34:00.713Z,13.67
2022-10-18T02:36:45.328Z,13.66
2022-10-18T02:39:16.217Z,13.65
2022-10-18T02:41:43.304Z,13.66
2022-10-18T02:44:10.581Z,13.65
2022-10-18T02:46:37.183Z,13.63
2022-10-18T02:49:03.572Z,13.60
2022-10-18T02:51:30.060Z,13.58
2022-10-18T02:53:56.429Z,13.55
2022-10-18T02:56:22.845Z,13.53
2022-10-18T02:58:49.217Z,13.52
2022-10-18T03:01:15.668Z,13.51
2022-10-18T03:03:42.101Z,13.48
2022-10-18T03:06:08.442Z,13.47
2022-10-18T03:08:36.260Z,13.46
2022-10-18T03:11:02.640Z,13.45
2022-10-18T03:15:56.302Z,13.43
2022-10-18T03:18:22.706Z,13.43
2022-10-18T03:20:49.044Z,13.42
2022-10-18T03:23:15.430Z,13.41
2022-10-18T03:25:45.634Z,13.42
2022-10-18T03:28:12.855Z,13.41
2022-10-18T03:30:39.209Z,13.40
2022-10-18T03:33:08.336Z,13.39
2022-10-18T03:35:34.690Z,13.36
2022-10-18T03:38:01.057Z,13.33
2022-10-18T03:40:27.472Z,13.29
2022-10-18T03:42:53.814Z,13.27
2022-10-18T03:45:20.179Z,13.24
2022-10-18T03:47:46.526Z,13.22
2022-10-18T03:50:13.125Z,13.20
2022-10-18T03:52:39.502Z,13.20
2022-10-18T03:55:06.592Z,13.18
2022-10-18T03:57:32.957Z,13.17
2022-10-18T03:59:59.339Z,13.13
2022-10-18T04:02:26.442Z,13.10
2022-10-18T04:04:52.781Z,13.09
2022-10-18T04:07:19.358Z,13.09
2022-10-18T04:09:45.724Z,13.09
2022-10-18T04:12:12.065Z,13.08
2022-10-18T04:14:38.442Z,13.06
2022-10-18T04:17:04.804Z,13.07
2022-10-18T04:19:31.177Z,13.08
2022-10-18T04:21:57.518Z,13.07
2022-10-18T04:24:23.960Z,13.06
2022-10-18T04:26:50.302Z,13.06
2022-10-18T04:29:16.675Z,13.04
2022-10-18T04:31:43.165Z,13.02
2022-10-18T04:34:10.428Z,13.02
2022-10-18T04:36:37.096Z,13.01
2022-10-18T04:39:03.483Z,12.99
2022-10-18T04:41:29.853Z,12.95
2022-10-18T04:43:56.258Z,12.92
2022-10-18T04:46:22.640Z,12.87
2022-10-18T04:48:49.000Z,12.87
2022-10-18T04:51:15.377Z,12.87
2022-10-18T04:53:41.719Z,12.87
2022-10-18T04:56:08.690Z,12.84
2022-10-18T04:58:35.091Z,12.84
2022-10-18T05:01:05.426Z,12.81
2022-10-18T05:03:32.064Z,12.75
2022-10-18T05:06:01.893Z,12.70
2022-10-18T05:08:30.922Z,12.68
2022-10-18T05:10:57.518Z,12.62
2022-10-18T05:13:23.990Z,12.57
2022-10-18T05:15:50.323Z,12.53
2022-10-18T05:18:16.763Z,12.49
2022-10-18T05:20:43.130Z,12.48
2022-10-18T05:23:12.196Z,12.45
2022-10-18T05:25:42.779Z,12.43
2022-10-18T05:28:11.130Z,12.38
2022-10-18T05:30:53.746Z,12.34
2022-10-18T05:33:20.110Z,12.33
2022-10-18T05:35:46.483Z,12.35
2022-10-18T05:38:12.850Z,12.34
2022-10-18T05:40:39.540Z,12.29
2022-10-18T05:43:05.908Z,12.25
2022-10-18T05:45:32.250Z,12.23
2022-10-18T05:47:58.620Z,12.18
2022-10-18T05:50:25.060Z,12.15
2022-10-18T05:52:51.432Z,12.15
2022-10-18T05:55:17.801Z,12.13
2022-10-18T05:57:48.802Z,12.08
2022-10-18T06:00:15.205Z,12.07
2022-10-18T06:02:41.613Z,12.04
2022-10-18T06:05:08.114Z,12.05
2022-10-18T06:07:34.909Z,12.02
2022-10-18T06:10:01.467Z,11.97
2022-10-18T06:12:27.845Z,11.94
2022-10-18T06:14:54.269Z,11.95
2022-10-18T06:17:20.733Z,11.94
2022-10-18T06:19:47.142Z,11.92
2022-10-18T06:22:13.594Z,11.90
2022-10-18T06:24:39.970Z,11.91
2022-10-18T06:27:09.145Z,11.85
2022-10-18T06:29:36.980Z,11.83
2022-10-18T06:32:04.582Z,11.81
2022-10-18T06:34:31.092Z,11.82
2022-10-18T06:36:58.795Z,11.95
2022-10-18T06:39:25.950Z,11.99
2022-10-18T06:41:52.763Z,11.93
2022-10-18T06:44:20.808Z,11.89
2022-10-18T06:46:48.390Z,11.89
2022-10-18T06:49:18.323Z,11.88
2022-10-18T06:51:46.105Z,11.83
2022-10-18T06:54:17.961Z,11.81
2022-10-18T06:56:45.059Z,11.83
2022-10-18T06:59:11.467Z,11.82
2022-10-18T07:01:37.874Z,11.83
2022-10-18T07:04:04.443Z,11.85
2022-10-18T07:06:30.797Z,11.89
2022-10-18T07:08:57.435Z,11.94
2022-10-18T07:11:26.095Z,11.97
2022-10-18T07:13:54.403Z,11.98
2022-10-18T07:16:21.041Z,11.99
2022-10-18T07:18:50.135Z,12.00
2022-10-18T07:21:21.779Z,12.02
2022-10-18T07:23:49.107Z,12.04
2022-10-18T07:26:19.681Z,12.10
2022-10-18T07:28:49.175Z,12.22
2022-10-18T07:31:16.958Z,12.47
2022-10-18T07:33:43.294Z,12.62
2022-10-18T07:36:11.724Z,12.61
2022-10-18T07:38:38.499Z,12.60
2022-10-18T07:41:07.103Z,12.62
2022-10-18T07:43:34.739Z,12.65
2022-10-18T07:46:03.858Z,12.67
2022-10-18T07:48:30.842Z,12.69
2022-10-18T07:51:01.193Z,12.73
2022-10-18T07:53:28.985Z,12.78
2022-10-18T07:56:07.101Z,12.85
2022-10-18T07:58:35.773Z,12.93
2022-10-18T08:01:04.042Z,13.00
2022-10-18T08:03:30.805Z,13.10
2022-10-18T08:05:57.448Z,13.17
2022-10-18T08:08:25.066Z,13.25
2022-10-18T08:10:51.577Z,13.30
2022-10-18T08:13:18.520Z,13.31
2022-10-18T08:15:44.904Z,13.36
2022-10-18T08:18:12.081Z,13.42
2022-10-18T08:20:43.632Z,13.51
2022-10-18T08:23:10.250Z,13.59
2022-10-18T08:28:08.017Z,13.70
2022-10-18T08:30:35.115Z,13.72
2022-10-18T08:33:02.216Z,13.71
2022-10-18T08:35:28.640Z,13.74
2022-10-18T08:37:55.066Z,13.78
2022-10-18T08:40:21.493Z,13.83
2022-10-18T08:43:09.663Z,13.87
2022-10-18T08:45:43.252Z,13.90
2022-10-18T08:48:38.138Z,13.93
2022-10-18T08:51:14.645Z,13.97
2022-10-18T08:53:56.606Z,14.00
2022-10-18T08:56:24.407Z,14.03
2022-10-18T08:58:50.786Z,14.06
2022-10-18T09:01:31.496Z,14.10
2022-10-18T09:04:32.633Z,14.16
2022-10-18T09:07:11.045Z,14.21
2022-10-18T09:09:47.357Z,14.22
2022-10-18T09:12:42.688Z,14.26
2022-10-18T09:15:16.690Z,14.28
2022-10-18T09:18:28.065Z,14.33
2022-10-18T09:20:59.658Z,14.38
2022-10-18T09:23:47.282Z,14.39
2022-10-18T09:26:24.572Z,14.37
2022-10-18T09:29:14.270Z,14.41
2022-10-18T09:32:01.017Z,14.46
2022-10-18T09:34:42.457Z,14.45
2022-10-18T09:37:16.404Z,14.47
2022-10-18T09:39:43.571Z,14.54
2022-10-18T09:42:35.814Z,14.55
2022-10-18T09:45:08.513Z,14.60
2022-10-18T09:47:41.033Z,14.63
2022-10-18T09:50:38.217Z,14.64
2022-10-18T09:53:11.534Z,14.70
2022-10-18T09:55:59.329Z,14.74
2022-10-18T09:58:32.009Z,14.76
2022-10-18T10:00:59.439Z,14.77
2022-10-18T10:03:25.834Z,14.78
2022-10-18T10:06:15.099Z,14.79
2022-10-18T10:08:44.185Z,14.82
2022-10-18T10:11:32.364Z,14.86
2022-10-18T10:14:30.194Z,14.87
2022-10-18T10:16:58.352Z,14.88
2022-10-18T10:19:37.745Z,14.87
2022-10-18T10:22:08.937Z,14.89
2022-10-18T10:24:47.588Z,14.92
2022-10-18T10:27:34.935Z,14.95
2022-10-18T10:30:06.721Z,14.97
2022-10-18T10:32:47.143Z,14.93
2022-10-18T10:35:53.207Z,14.93
2022-10-18T10:38:25.275Z,15.00
2022-10-18T10:40:52.076Z,15.03
2022-10-18T10:43:38.918Z,15.09
2022-10-18T10:46:10.047Z,15.14
2022-10-18T10:48:46.963Z,15.08
2022-10-18T10:51:14.278Z,15.05
2022-10-18T10:53:58.353Z,15.13
2022-10-18T10:56:31.265Z,15.15
2022-10-18T10:59:18.622Z,15.11
2022-10-18T11:01:47.623Z,15.14
2022-10-18T11:04:29.634Z,15.09
2022-10-18T11:07:06.685Z,15.11
2022-10-18T11:09:50.401Z,15.18
2022-10-18T11:12:39.228Z,15.25
2022-10-18T11:15:20.724Z,15.31
2022-10-18T11:18:10.661Z,15.35
2022-10-18T11:20:47.056Z,15.38
2022-10-18T11:23:15.899Z,15.38
2022-10-18T11:26:01.011Z,15.39
2022-10-18T11:28:36.628Z,15.39
2022-10-18T11:31:14.137Z,15.42
2022-10-18T11:34:14.297Z,15.47
2022-10-18T11:37:23.041Z,15.41
2022-10-18T11:39:54.222Z,15.45
2022-10-18T11:42:37.801Z,15.53
2022-10-18T11:45:28.005Z,15.56
2022-10-18T11:48:02.234Z,15.53
2022-10-18T11:51:13.670Z,15.59
2022-10-18T11:54:07.641Z,15.62
2022-10-18T11:56:47.365Z,15.68
2022-10-18T11:59:43.077Z,15.71
2022-10-18T12:02:40.052Z,15.75
2022-10-18T12:05:23.131Z,15.75
2022-10-18T12:07:58.840Z,15.79
2022-10-18T12:10:44.113Z,15.81
2022-10-18T12:13:23.522Z,15.83
2022-10-18T12:15:51.600Z,15.88
2022-10-18T12:18:21.725Z,15.98
2022-10-18T12:20:59.164Z,16.02
2022-10-18T12:23:42.315Z,16.01
2022-10-18T12:26:11.073Z,16.01
2022-10-18T12:28:56.583Z,16.02
2022-10-18T12:31:37.763Z,16.01
2022-10-18T12:34:22.595Z,16.01
2022-10-18T12:39:58.441Z,16.06
2022-10-18T12:42:32.818Z,16.15
2022-10-18T12:45:28.614Z,16.21
2022-10-18T12:48:05.793Z,16.24
2022-10-18T12:50:36.608Z,16.23
2022-10-18T12:53:20.158Z,16.25
2022-10-18T12:55:51.296Z,16.29
2022-10-18T12:58:22.824Z,16.37
2022-10-18T13:00:49.144Z,16.39
2022-10-18T13:03:18.394Z,16.40
2022-10-18T13:05:56.088Z,16.39
2022-10-18T13:08:29.025Z,16.39
2022-10-18T13:11:01.346Z,16.41
2022-10-18T13:14:05.564Z,16.41
2022-10-18T13:16:39.767Z,16.38
2022-10-18T13:19:39.137Z,16.37
2022-10-18T13:22:23.762Z,16.32
2022-10-18T13:25:19.239Z,16.26
2022-10-18T13:28:17.464Z,16.27
2022-10-18T13:31:22.961Z,16.27
2022-10-18T13:33:49.582Z,16.24
2022-10-18T13:36:22.840Z,16.20
2022-10-18T13:38:57.102Z,16.18
2022-10-18T13:41:43.211Z,16.18
2022-10-18T13:44:37.675Z,16.19
2022-10-18T13:47:04.087Z,16.17
2022-10-18T13:49:39.323Z,16.12
2022-10-18T13:52:26.610Z,16.09
2022-10-18T13:55:25.295Z,15.98
2022-10-18T13:58:09.882Z,15.98
2022-10-18T14:00:53.456Z,15.99
2022-10-18T14:04:11.090Z,16.00
2022-10-18T14:06:43.483Z,16.02
2022-10-18T14:09:40.423Z,15.98
2022-10-18T14:12:28.591Z,15.94
2022-10-18T14:15:05.196Z,15.92
2022-10-18T14:20:14.923Z,15.89
2022-10-18T14:22:47.998Z,15.88
2022-10-18T14:25:26.425Z,15.85
2022-10-18T14:28:19.864Z,15.81
2022-10-18T14:30:59.703Z,15.81
2022-10-18T14:33:37.896Z,15.82
2022-10-18T14:36:12.938Z,15.82
2022-10-18T14:38:57.158Z,15.77
2022-10-18T14:41:26.180Z,15.78
2022-10-18T14:44:09.265Z,15.77
2022-10-18T14:46:44.960Z,15.73
2022-10-18T14:49:13.425Z,15.72
2022-10-18T14:51:43.441Z,15.69
2022-10-18T14:54:33.732Z,15.69
2022-10-18T14:57:01.206Z,15.71
2022-10-18T14:59:32.200Z,15.68
2022-10-18T15:02:02.014Z,15.67
2022-10-18T15:04:35.030Z,15.66
2022-10-18T15:07:04.588Z,15.59
2022-10-18T15:09:34.106Z,15.57
2022-10-18T15:12:03.157Z,15.55
2022-10-18T15:14:30.128Z,15.54
2022-10-18T15:17:02.529Z,15.53
2022-10-18T15:19:35.420Z,15.42
2022-10-18T15:22:31.786Z,15.36
2022-10-18T15:25:05.825Z,15.36
2022-10-18T15:27:36.908Z,15.37
2022-10-18T15:30:10.913Z,15.38
2022-10-18T15:32:37.802Z,15.33
2022-10-18T15:35:18.501Z,15.32
2022-10-18T15:37:48.553Z,15.31
2022-10-18T15:40:23.944Z,15.29
2022-10-18T15:42:52.541Z,15.24
2022-10-18T15:48:15.145Z,15.25
2022-10-18T15:50:50.365Z,15.24
2022-10-18T15:53:22.830Z,15.24
2022-10-18T15:56:11.437Z,15.24
2022-10-18T15:58:46.338Z,15.23
2022-10-18T16:01:27.183Z,15.23
2022-10-18T16:06:20.869Z,15.20
2022-10-18T16:08:50.577Z,15.20
2022-10-18T16:11:23.209Z,15.24
2022-10-18T16:13:50.488Z,15.20
2022-10-18T16:16:25.889Z,15.16
2022-10-18T16:18:52.967Z,15.04
2022-10-18T16:21:20.864Z,14.99
2022-10-18T16:23:48.810Z,14.98
2022-10-18T16:26:16.638Z,14.98
2022-10-18T16:28:43.563Z,14.97
2022-10-18T16:33:47.577Z,14.91
2022-10-18T16:36:16.628Z,14.87
2022-10-18T16:38:44.496Z,14.81
2022-10-18T16:41:11.245Z,14.81
2022-10-18T16:43:38.170Z,14.81
2022-10-18T16:46:05.678Z,14.81
2022-10-18T16:48:32.760Z,14.80
2022-10-18T16:50:59.539Z,14.75
2022-10-18T16:53:26.206Z,14.71
2022-10-18T16:55:58.673Z,14.69
2022-10-18T16:58:26.987Z,14.65
2022-10-18T17:00:53.444Z,14.63
2022-10-18T17:03:19.956Z,14.60
2022-10-18T17:05:46.362Z,14.56
2022-10-18T17:08:27.309Z,14.55
2022-10-18T17:10:56.870Z,14.52
2022-10-18T17:13:24.404Z,14.50
2022-10-18T17:15:51.825Z,14.49
2022-10-18T17:18:23.407Z,14.47
2022-10-18T17:20:50.237Z,14.50
2022-10-18T17:23:16.703Z,14.49
2022-10-18T17:25:57.433Z,14.47
2022-10-18T17:28:31.324Z,14.44
2022-10-18T17:30:57.793Z,14.42
2022-10-18T17:33:24.218Z,14.38
2022-10-18T17:35:50.569Z,14.33
2022-10-18T17:38:16.989Z,14.32
2022-10-18T17:40:43.556Z,14.28
2022-10-18T17:43:10.255Z,14.25
2022-10-18T17:45:36.619Z,14.24
2022-10-18T17:48:03.090Z,14.20
2022-10-18T17:50:29.485Z,14.17
2022-10-18T17:52:56.860Z,14.16
2022-10-18T17:55:23.280Z,14.14
2022-10-18T17:57:51.422Z,14.14
2022-10-18T18:00:17.971Z,14.10
2022-10-18T18:02:44.729Z,14.07
2022-10-18T18:05:12.535Z,14.05
2022-10-18T18:07:38.917Z,14.00
2022-10-18T18:10:05.748Z,13.97
2022-10-18T18:12:32.424Z,13.93
2022-10-18T18:14:59.083Z,13.93
2022-10-18T18:17:33.970Z,13.92
2022-10-18T18:20:07.141Z,13.90
2022-10-18T18:22:34.574Z,13.88
2022-10-18T18:25:01.728Z,13.88
2022-10-18T18:27:28.126Z,13.85
2022-10-18T18:29:54.922Z,13.83
2022-10-18T18:32:21.291Z,13.83
2022-10-18T18:34:47.680Z,13.80
2022-10-18T18:37:14.115Z,13.80
2022-10-18T18:39:40.560Z,13.79
2022-10-18T18:42:07.341Z,13.77
2022-10-18T18:44:33.939Z,13.76
2022-10-18T18:47:01.310Z,13.73
2022-10-18T18:49:27.981Z,13.69
2022-10-18T18:51:54.449Z,13.66
2022-10-18T18:54:21.997Z,13.63
2022-10-18T18:56:48.367Z,13.60
2022-10-18T18:59:15.775Z,13.57
2022-10-18T19:01:42.956Z,13.55
2022-10-18T19:04:10.258Z,13.50
2022-10-18T19:06:39.299Z,13.45
2022-10-18T19:09:12.041Z,13.43
2022-10-18T19:11:39.477Z,13.40
2022-10-18T19:14:07.766Z,13.34
2022-10-18T19:16:38.357Z,13.30
2022-10-18T19:19:06.138Z,13.27
2022-10-18T19:21:38.054Z,13.22
2022-10-18T19:24:05.729Z,13.20
2022-10-18T19:26:39.507Z,13.19
2022-10-18T19:29:09.582Z,13.14
2022-10-18T19:31:36.633Z,13.10
2022-10-18T19:34:05.167Z,13.09
2022-10-18T19:36:31.686Z,13.08
2022-10-18T19:38:58.389Z,13.07
2022-10-18T19:43:57.257Z,13.04
2022-10-18T19:46:24.547Z,13.02
2022-10-18T19:48:51.483Z,13.00
2022-10-18T19:51:21.024Z,12.99
2022-10-18T19:53:49.352Z,12.98
2022-10-18T19:56:22.285Z,12.99
2022-10-18T19:58:49.474Z,12.96
2022-10-18T20:01:17.090Z,12.97
2022-10-18T20:03:44.474Z,12.98
2022-10-18T20:06:11.017Z,12.95
2022-10-18T20:08:38.034Z,12.90
2022-10-18T20:11:16.373Z,12.89
2022-10-18T20:13:43.490Z,12.88
2022-10-18T20:16:11.722Z,12.85
2022-10-18T20:18:38.445Z,12.81
2022-10-18T20:21:06.159Z,12.78
2022-10-18T20:23:34.890Z,12.76
2022-10-18T20:26:04.057Z,12.74
2022-10-18T20:28:30.528Z,12.72
2022-10-18T20:31:01.667Z,12.73
2022-10-18T20:33:29.195Z,12.71
2022-10-18T20:35:55.630Z,12.72
2022-10-18T20:38:22.342Z,12.70
2022-10-18T20:40:48.693Z,12.71
2022-10-18T20:43:15.081Z,12.69
2022-10-18T20:45:41.470Z,12.67
2022-10-18T20:48:07.886Z,12.64
2022-10-18T20:50:34.276Z,12.61
2022-10-18T20:53:00.652Z,12.61
2022-10-18T20:55:28.885Z,12.57
2022-10-18T20:57:55.242Z,12.56
2022-10-18T21:00:21.641Z,12.54
2022-10-18T21:02:48.102Z,12.54
2022-10-18T21:05:16.438Z,12.53
2022-10-18T21:07:42.809Z,12.54
2022-10-18T21:10:09.298Z,12.54
2022-10-18T21:12:36.053Z,12.54
2022-10-18T21:15:02.663Z,12.56
2022-10-18T21:17:29.154Z,12.53
2022-10-18T21:19:55.533Z,12.53
2022-10-18T21:22:21.893Z,12.56
2022-10-18T21:24:50.484Z,12.58
2022-10-18T21:27:16.878Z,12.55
2022-10-18T21:29:43.262Z,12.56
2022-10-18T21:32:09.720Z,12.56
2022-10-18T21:34:36.061Z,12.54
2022-10-18T21:37:02.441Z,12.53
2022-10-18T21:39:29.918Z,12.52
2022-10-18T21:41:56.482Z,12.50
2022-10-18T21:44:23.088Z,12.48
2022-10-18T21:46:50.562Z,12.47
2022-10-18T21:49:17.298Z,12.44
2022-10-18T21:51:44.213Z,12.42
2022-10-18T21:54:12.607Z,12.40
2022-10-18T21:56:39.036Z,12.36
2022-10-18T21:59:05.706Z,12.33
2022-10-18T22:01:34.934Z,12.32
2022-10-18T22:04:04.160Z,12.30
2022-10-18T22:09:08.174Z,12.24
2022-10-18T22:11:44.808Z,12.21
2022-10-18T22:14:11.443Z,12.17
2022-10-18T22:16:38.069Z,12.13
2022-10-18T22:19:05.934Z,12.11
2022-10-18T22:21:33.729Z,12.08
2022-10-18T22:24:00.169Z,12.06
2022-10-18T22:26:28.568Z,12.09
2022-10-18T22:28:56.891Z,12.10
2022-10-18T22:31:26.260Z,12.12
2022-10-18T22:33:57.585Z,12.11
2022-10-18T22:36:25.326Z,12.10
2022-10-18T22:38:51.867Z,12.10
2022-10-18T22:41:18.569Z,12.08
2022-10-18T22:43:45.349Z,12.08
2022-10-18T22:46:13.516Z,12.07
2022-10-18T22:48:40.609Z,12.05
2022-10-18T22:51:07.968Z,12.05
2022-10-18T22:53:34.762Z,12.05
2022-10-18T22:56:01.453Z,12.02
2022-10-18T22:58:28.030Z,12.03
2022-10-18T23:01:02.620Z,12.01
2022-10-18T23:03:29.387Z,12.00
2022-10-18T23:05:56.077Z,12.00
2022-10-18T23:08:22.612Z,11.97
2022-10-18T23:10:56.222Z,11.95
2022-10-18T23:13:23.873Z,11.91
2022-10-18T23:15:50.870Z,11.88
2022-10-18T23:18:17.933Z,11.84
2022-10-18T23:20:45.481Z,11.82
2022-10-18T23:23:12.937Z,11.79
2022-10-18T23:25:39.686Z,11.77
2022-10-18T23:28:06.413Z,11.75
2022-10-18T23:30:32.874Z,11.74
2022-10-18T23:32:59.244Z,11.70
2022-10-18T23:35:25.721Z,11.72
2022-10-18T23:37:52.582Z,11.70
2022-10-18T23:40:18.986Z,11.68
2022-10-18T23:42:45.425Z,11.65
2022-10-18T23:45:11.790Z,11.64
2022-10-18T23:47:38.161Z,11.62
2022-10-18T23:50:05.004Z,11.61
2022-10-18T23:52:31.384Z,11.57
2022-10-18T23:54:57.760Z,11.53
2022-10-18T23:57:24.102Z,11.52
2022-10-18T23:59:50.455Z,11.51
